sensor_id;sensor_type;location;lat;lon;timestamp;temperature;humidity
35680;DHT22;21803;53.586;10.040;2023-11-21T00:00:44;19.60;72.80
35680;DHT22;21803;53.586;10.040;2023-11-21T00:03:11;19.60;72.90
35680;DHT22;21803;53.586;10.040;2023-11-21T00:05:40;19.70;72.80
35680;DHT22;21803;53.586;10.040;2023-11-21T00:08:07;19.60;72.80
35680;DHT22;21803;53.586;10.040;2023-11-21T00:10:33;19.70;72.90
35680;DHT22;21803;53.586;10.040;2023-11-21T00:12:59;19.70;72.90
35680;DHT22;21803;53.586;10.040;2023-11-21T00:15:24;19.60;72.80
35680;DHT22;21803;53.586;10.040;2023-11-21T00:17:51;19.60;72.80
35680;DHT22;21803;53.586;10.040;2023-11-21T00:20:17;19.60;72.80
35680;DHT22;21803;53.586;10.040;2023-11-21T00:22:42;19.70;72.80
35680;DHT22;21803;53.586;10.040;2023-11-21T00:25:08;19.60;72.70
35680;DHT22;21803;53.586;10.040;2023-11-21T00:27:37;19.60;72.60
35680;DHT22;21803;53.586;10.040;2023-11-21T00:30:03;19.70;72.70
35680;DHT22;21803;53.586;10.040;2023-11-21T00:32:32;19.60;72.60
35680;DHT22;21803;53.586;10.040;2023-11-21T00:34:58;19.60;72.50
35680;DHT22;21803;53.586;10.040;2023-11-21T00:37:24;19.70;72.70
35680;DHT22;21803;53.586;10.040;2023-11-21T00:39:50;19.60;72.60
35680;DHT22;21803;53.586;10.040;2023-11-21T00:42:15;19.60;72.40
35680;DHT22;21803;53.586;10.040;2023-11-21T00:44:41;19.60;72.60
35680;DHT22;21803;53.586;10.040;2023-11-21T00:47:07;19.60;72.60
35680;DHT22;21803;53.586;10.040;2023-11-21T00:49:33;19.60;72.50
35680;DHT22;21803;53.586;10.040;2023-11-21T00:51:58;19.60;72.40
35680;DHT22;21803;53.586;10.040;2023-11-21T00:54:24;19.60;72.60
35680;DHT22;21803;53.586;10.040;2023-11-21T00:56:49;19.60;72.70
35680;DHT22;21803;53.586;10.040;2023-11-21T00:59:15;19.60;72.40
35680;DHT22;21803;53.586;10.040;2023-11-21T01:01:40;19.60;72.40
35680;DHT22;21803;53.586;10.040;2023-11-21T01:04:06;19.60;72.40
35680;DHT22;21803;53.586;10.040;2023-11-21T01:06:34;19.60;72.40
35680;DHT22;21803;53.586;10.040;2023-11-21T01:09:00;19.60;72.30
35680;DHT22;21803;53.586;10.040;2023-11-21T01:11:25;19.60;72.30
35680;DHT22;21803;53.586;10.040;2023-11-21T01:13:51;19.70;72.40
35680;DHT22;21803;53.586;10.040;2023-11-21T01:16:17;19.60;72.30
35680;DHT22;21803;53.586;10.040;2023-11-21T01:18:43;19.60;72.10
35680;DHT22;21803;53.586;10.040;2023-11-21T01:21:08;19.60;72.10
35680;DHT22;21803;53.586;10.040;2023-11-21T01:23:34;19.70;72.30
35680;DHT22;21803;53.586;10.040;2023-11-21T01:26:00;19.60;72.30
35680;DHT22;21803;53.586;10.040;2023-11-21T01:28:25;19.60;72.20
35680;DHT22;21803;53.586;10.040;2023-11-21T01:30:52;19.60;72.20
35680;DHT22;21803;53.586;10.040;2023-11-21T01:33:18;19.60;72.20
35680;DHT22;21803;53.586;10.040;2023-11-21T01:35:44;19.60;72.10
35680;DHT22;21803;53.586;10.040;2023-11-21T01:38:12;19.60;72.10
35680;DHT22;21803;53.586;10.040;2023-11-21T01:40:37;19.60;72.30
35680;DHT22;21803;53.586;10.040;2023-11-21T01:43:03;19.60;72.20
35680;DHT22;21803;53.586;10.040;2023-11-21T01:45:29;19.60;72.30
35680;DHT22;21803;53.586;10.040;2023-11-21T01:47:56;19.60;72.30
35680;DHT22;21803;53.586;10.040;2023-11-21T01:50:24;19.60;72.10
35680;DHT22;21803;53.586;10.040;2023-11-21T01:52:50;19.60;72.10
35680;DHT22;21803;53.586;10.040;2023-11-21T01:55:17;19.60;72.10
35680;DHT22;21803;53.586;10.040;2023-11-21T01:57:46;19.60;72.10
35680;DHT22;21803;53.586;10.040;2023-11-21T02:00:13;19.60;72.30
35680;DHT22;21803;53.586;10.040;2023-11-21T02:02:48;19.60;72.10
35680;DHT22;21803;53.586;10.040;2023-11-21T02:05:18;19.60;72.10
35680;DHT22;21803;53.586;10.040;2023-11-21T02:07:44;19.60;71.90
35680;DHT22;21803;53.586;10.040;2023-11-21T02:10:13;19.60;72.00
35680;DHT22;21803;53.586;10.040;2023-11-21T02:12:41;19.60;71.90
35680;DHT22;21803;53.586;10.040;2023-11-21T02:15:08;19.60;72.00
35680;DHT22;21803;53.586;10.040;2023-11-21T02:17:43;19.60;71.90
35680;DHT22;21803;53.586;10.040;2023-11-21T02:20:13;19.60;71.90
35680;DHT22;21803;53.586;10.040;2023-11-21T02:22:41;19.60;71.90
35680;DHT22;21803;53.586;10.040;2023-11-21T02:25:08;19.60;71.80
35680;DHT22;21803;53.586;10.040;2023-11-21T02:27:33;19.60;71.90
35680;DHT22;21803;53.586;10.040;2023-11-21T02:29:59;19.60;71.90
35680;DHT22;21803;53.586;10.040;2023-11-21T02:32:26;19.60;71.80
35680;DHT22;21803;53.586;10.040;2023-11-21T02:34:51;19.60;71.90
35680;DHT22;21803;53.586;10.040;2023-11-21T02:37:17;19.60;71.90
35680;DHT22;21803;53.586;10.040;2023-11-21T02:39:42;19.60;71.60
35680;DHT22;21803;53.586;10.040;2023-11-21T02:42:08;19.60;71.80
35680;DHT22;21803;53.586;10.040;2023-11-21T02:44:34;19.60;71.70
35680;DHT22;21803;53.586;10.040;2023-11-21T02:47:00;19.60;71.60
35680;DHT22;21803;53.586;10.040;2023-11-21T02:49:25;19.60;71.60
35680;DHT22;21803;53.586;10.040;2023-11-21T02:51:54;19.60;71.40
35680;DHT22;21803;53.586;10.040;2023-11-21T02:54:20;19.60;71.40
35680;DHT22;21803;53.586;10.040;2023-11-21T02:56:47;19.60;71.40
35680;DHT22;21803;53.586;10.040;2023-11-21T02:59:13;19.60;71.60
35680;DHT22;21803;53.586;10.040;2023-11-21T03:01:38;19.60;71.40
35680;DHT22;21803;53.586;10.040;2023-11-21T03:04:04;19.60;71.50
35680;DHT22;21803;53.586;10.040;2023-11-21T03:06:30;19.60;71.30
35680;DHT22;21803;53.586;10.040;2023-11-21T03:08:55;19.60;71.30
35680;DHT22;21803;53.586;10.040;2023-11-21T03:11:21;19.60;71.40
35680;DHT22;21803;53.586;10.040;2023-11-21T03:13:46;19.50;71.10
35680;DHT22;21803;53.586;10.040;2023-11-21T03:16:12;19.50;71.20
35680;DHT22;21803;53.586;10.040;2023-11-21T03:18:38;19.60;71.20
35680;DHT22;21803;53.586;10.040;2023-11-21T03:21:05;19.60;71.20
35680;DHT22;21803;53.586;10.040;2023-11-21T03:23:31;19.60;71.20
35680;DHT22;21803;53.586;10.040;2023-11-21T03:25:56;19.60;71.10
35680;DHT22;21803;53.586;10.040;2023-11-21T03:28:22;19.60;71.20
35680;DHT22;21803;53.586;10.040;2023-11-21T03:30:49;19.50;71.10
35680;DHT22;21803;53.586;10.040;2023-11-21T03:33:14;19.50;71.10
35680;DHT22;21803;53.586;10.040;2023-11-21T03:35:40;19.60;71.00
35680;DHT22;21803;53.586;10.040;2023-11-21T03:38:07;19.60;71.10
35680;DHT22;21803;53.586;10.040;2023-11-21T03:40:33;19.60;71.00
35680;DHT22;21803;53.586;10.040;2023-11-21T03:42:58;19.60;71.10
35680;DHT22;21803;53.586;10.040;2023-11-21T03:45:24;19.60;71.00
35680;DHT22;21803;53.586;10.040;2023-11-21T03:47:49;19.50;70.70
35680;DHT22;21803;53.586;10.040;2023-11-21T03:50:15;19.60;70.60
35680;DHT22;21803;53.586;10.040;2023-11-21T03:52:41;19.60;70.90
35680;DHT22;21803;53.586;10.040;2023-11-21T03:55:06;19.50;70.60
35680;DHT22;21803;53.586;10.040;2023-11-21T03:57:32;19.60;70.70
35680;DHT22;21803;53.586;10.040;2023-11-21T03:59:58;19.60;70.80
35680;DHT22;21803;53.586;10.040;2023-11-21T04:02:23;19.60;70.60
35680;DHT22;21803;53.586;10.040;2023-11-21T04:04:51;19.60;70.60
35680;DHT22;21803;53.586;10.040;2023-11-21T04:07:16;19.60;70.50
35680;DHT22;21803;53.586;10.040;2023-11-21T04:09:43;19.60;70.60
35680;DHT22;21803;53.586;10.040;2023-11-21T04:12:08;19.60;70.50
35680;DHT22;21803;53.586;10.040;2023-11-21T04:14:36;19.60;70.50
35680;DHT22;21803;53.586;10.040;2023-11-21T04:17:02;19.50;70.30
35680;DHT22;21803;53.586;10.040;2023-11-21T04:19:29;19.60;70.40
35680;DHT22;21803;53.586;10.040;2023-11-21T04:21:54;19.50;70.10
35680;DHT22;21803;53.586;10.040;2023-11-21T04:24:20;19.50;70.30
35680;DHT22;21803;53.586;10.040;2023-11-21T04:26:45;19.50;70.10
35680;DHT22;21803;53.586;10.040;2023-11-21T04:29:11;19.60;70.10
35680;DHT22;21803;53.586;10.040;2023-11-21T04:31:37;19.50;70.10
35680;DHT22;21803;53.586;10.040;2023-11-21T04:34:03;19.60;70.10
35680;DHT22;21803;53.586;10.040;2023-11-21T04:36:29;19.50;70.00
35680;DHT22;21803;53.586;10.040;2023-11-21T04:38:56;19.50;70.00
35680;DHT22;21803;53.586;10.040;2023-11-21T04:41:21;19.50;70.00
35680;DHT22;21803;53.586;10.040;2023-11-21T04:43:47;19.50;69.80
35680;DHT22;21803;53.586;10.040;2023-11-21T04:46:13;19.50;69.80
35680;DHT22;21803;53.586;10.040;2023-11-21T04:48:38;19.50;69.80
35680;DHT22;21803;53.586;10.040;2023-11-21T04:51:04;19.50;69.80
35680;DHT22;21803;53.586;10.040;2023-11-21T04:53:30;19.50;69.80
35680;DHT22;21803;53.586;10.040;2023-11-21T04:55:55;19.50;69.70
35680;DHT22;21803;53.586;10.040;2023-11-21T04:58:21;19.50;69.70
35680;DHT22;21803;53.586;10.040;2023-11-21T05:00:46;19.50;69.60
35680;DHT22;21803;53.586;10.040;2023-11-21T05:03:12;19.50;69.80
35680;DHT22;21803;53.586;10.040;2023-11-21T05:05:37;19.50;69.90
35680;DHT22;21803;53.586;10.040;2023-11-21T05:08:03;19.50;69.60
35680;DHT22;21803;53.586;10.040;2023-11-21T05:10:30;19.50;69.40
35680;DHT22;21803;53.586;10.040;2023-11-21T05:12:55;19.50;69.40
35680;DHT22;21803;53.586;10.040;2023-11-21T05:15:21;19.50;69.50
35680;DHT22;21803;53.586;10.040;2023-11-21T05:17:47;19.50;69.30
35680;DHT22;21803;53.586;10.040;2023-11-21T05:20:15;19.50;69.20
35680;DHT22;21803;53.586;10.040;2023-11-21T05:22:47;19.50;69.20
35680;DHT22;21803;53.586;10.040;2023-11-21T05:25:13;19.50;69.20
35680;DHT22;21803;53.586;10.040;2023-11-21T05:27:39;19.50;69.20
35680;DHT22;21803;53.586;10.040;2023-11-21T05:30:05;19.50;69.20
35680;DHT22;21803;53.586;10.040;2023-11-21T05:32:35;19.50;69.30
35680;DHT22;21803;53.586;10.040;2023-11-21T05:35:00;19.50;69.00
35680;DHT22;21803;53.586;10.040;2023-11-21T05:37:26;19.50;69.20
35680;DHT22;21803;53.586;10.040;2023-11-21T05:39:53;19.50;69.00
35680;DHT22;21803;53.586;10.040;2023-11-21T05:42:22;19.50;69.00
35680;DHT22;21803;53.586;10.040;2023-11-21T05:44:47;19.50;68.90
35680;DHT22;21803;53.586;10.040;2023-11-21T05:47:13;19.50;68.90
35680;DHT22;21803;53.586;10.040;2023-11-21T05:49:39;19.50;68.90
35680;DHT22;21803;53.586;10.040;2023-11-21T05:52:04;19.50;69.20
35680;DHT22;21803;53.586;10.040;2023-11-21T05:54:30;19.50;68.80
35680;DHT22;21803;53.586;10.040;2023-11-21T05:56:56;19.50;68.90
35680;DHT22;21803;53.586;10.040;2023-11-21T05:59:21;19.50;68.90
35680;DHT22;21803;53.586;10.040;2023-11-21T06:01:47;19.50;68.80
35680;DHT22;21803;53.586;10.040;2023-11-21T06:04:13;19.50;68.70
35680;DHT22;21803;53.586;10.040;2023-11-21T06:06:39;19.50;68.60
35680;DHT22;21803;53.586;10.040;2023-11-21T06:09:04;19.50;68.60
35680;DHT22;21803;53.586;10.040;2023-11-21T06:11:31;19.50;68.60
35680;DHT22;21803;53.586;10.040;2023-11-21T06:13:57;19.50;68.40
35680;DHT22;21803;53.586;10.040;2023-11-21T06:16:23;19.50;68.30
35680;DHT22;21803;53.586;10.040;2023-11-21T06:18:49;19.50;68.40
35680;DHT22;21803;53.586;10.040;2023-11-21T06:21:15;19.50;68.40
35680;DHT22;21803;53.586;10.040;2023-11-21T06:23:42;19.50;68.30
35680;DHT22;21803;53.586;10.040;2023-11-21T06:26:08;19.50;68.30
35680;DHT22;21803;53.586;10.040;2023-11-21T06:28:34;19.50;68.30
35680;DHT22;21803;53.586;10.040;2023-11-21T06:31:01;19.50;68.20
35680;DHT22;21803;53.586;10.040;2023-11-21T06:33:31;19.50;68.20
35680;DHT22;21803;53.586;10.040;2023-11-21T06:35:56;19.50;68.10
35680;DHT22;21803;53.586;10.040;2023-11-21T06:38:22;19.50;68.00
35680;DHT22;21803;53.586;10.040;2023-11-21T06:40:47;19.50;67.90
35680;DHT22;21803;53.586;10.040;2023-11-21T06:43:13;19.50;67.90
35680;DHT22;21803;53.586;10.040;2023-11-21T06:45:39;19.50;68.00
35680;DHT22;21803;53.586;10.040;2023-11-21T06:48:05;19.50;67.90
35680;DHT22;21803;53.586;10.040;2023-11-21T06:50:30;19.50;67.80
35680;DHT22;21803;53.586;10.040;2023-11-21T06:52:56;19.50;67.80
35680;DHT22;21803;53.586;10.040;2023-11-21T06:55:21;19.50;67.80
35680;DHT22;21803;53.586;10.040;2023-11-21T06:57:47;19.50;67.60
35680;DHT22;21803;53.586;10.040;2023-11-21T07:00:15;19.50;67.70
35680;DHT22;21803;53.586;10.040;2023-11-21T07:02:41;19.50;67.70
35680;DHT22;21803;53.586;10.040;2023-11-21T07:05:06;19.50;67.60
35680;DHT22;21803;53.586;10.040;2023-11-21T07:07:32;19.50;67.70
35680;DHT22;21803;53.586;10.040;2023-11-21T07:10:01;19.50;68.40
35680;DHT22;21803;53.586;10.040;2023-11-21T07:12:29;19.50;67.50
35680;DHT22;21803;53.586;10.040;2023-11-21T07:14:55;19.50;67.60
35680;DHT22;21803;53.586;10.040;2023-11-21T07:17:20;19.50;67.50
35680;DHT22;21803;53.586;10.040;2023-11-21T07:19:48;19.50;67.40
35680;DHT22;21803;53.586;10.040;2023-11-21T07:22:14;19.50;67.40
35680;DHT22;21803;53.586;10.040;2023-11-21T07:24:40;19.50;67.20
35680;DHT22;21803;53.586;10.040;2023-11-21T07:27:06;19.50;67.30
35680;DHT22;21803;53.586;10.040;2023-11-21T07:29:31;19.50;67.30
35680;DHT22;21803;53.586;10.040;2023-11-21T07:31:58;19.50;67.20
35680;DHT22;21803;53.586;10.040;2023-11-21T07:34:24;19.50;67.20
35680;DHT22;21803;53.586;10.040;2023-11-21T07:36:49;19.50;67.20
35680;DHT22;21803;53.586;10.040;2023-11-21T07:39:15;19.50;67.10
35680;DHT22;21803;53.586;10.040;2023-11-21T07:41:41;19.50;67.10
35680;DHT22;21803;53.586;10.040;2023-11-21T07:44:11;19.50;67.00
35680;DHT22;21803;53.586;10.040;2023-11-21T07:46:36;19.50;67.10
35680;DHT22;21803;53.586;10.040;2023-11-21T07:49:02;19.50;67.00
35680;DHT22;21803;53.586;10.040;2023-11-21T07:51:27;19.50;66.90
35680;DHT22;21803;53.586;10.040;2023-11-21T07:53:53;19.50;66.90
35680;DHT22;21803;53.586;10.040;2023-11-21T07:56:18;19.50;66.70
35680;DHT22;21803;53.586;10.040;2023-11-21T07:58:44;19.50;66.80
35680;DHT22;21803;53.586;10.040;2023-11-21T08:01:10;19.50;66.70
35680;DHT22;21803;53.586;10.040;2023-11-21T08:03:36;19.50;66.70
35680;DHT22;21803;53.586;10.040;2023-11-21T08:06:02;19.50;66.60
35680;DHT22;21803;53.586;10.040;2023-11-21T08:08:29;19.50;66.70
35680;DHT22;21803;53.586;10.040;2023-11-21T08:10:54;19.50;66.50
35680;DHT22;21803;53.586;10.040;2023-11-21T08:13:24;19.50;66.50
35680;DHT22;21803;53.586;10.040;2023-11-21T08:15:54;19.50;66.50
35680;DHT22;21803;53.586;10.040;2023-11-21T08:18:19;19.50;66.40
35680;DHT22;21803;53.586;10.040;2023-11-21T08:20:45;19.50;66.30
35680;DHT22;21803;53.586;10.040;2023-11-21T08:23:14;19.50;66.30
35680;DHT22;21803;53.586;10.040;2023-11-21T08:25:41;19.50;66.20
35680;DHT22;21803;53.586;10.040;2023-11-21T08:28:07;19.50;66.20
35680;DHT22;21803;53.586;10.040;2023-11-21T08:30:33;19.50;66.20
35680;DHT22;21803;53.586;10.040;2023-11-21T08:33:00;19.50;66.10
35680;DHT22;21803;53.586;10.040;2023-11-21T08:35:25;19.50;66.10
35680;DHT22;21803;53.586;10.040;2023-11-21T08:37:51;19.50;66.10
35680;DHT22;21803;53.586;10.040;2023-11-21T08:40:18;19.50;66.00
35680;DHT22;21803;53.586;10.040;2023-11-21T08:42:44;19.50;66.10
35680;DHT22;21803;53.586;10.040;2023-11-21T08:45:11;19.50;66.00
35680;DHT22;21803;53.586;10.040;2023-11-21T08:47:38;19.50;65.80
35680;DHT22;21803;53.586;10.040;2023-11-21T08:50:07;19.50;65.80
35680;DHT22;21803;53.586;10.040;2023-11-21T08:52:33;19.50;65.80
35680;DHT22;21803;53.586;10.040;2023-11-21T08:55:00;19.50;65.80
35680;DHT22;21803;53.586;10.040;2023-11-21T08:57:33;19.50;65.60
35680;DHT22;21803;53.586;10.040;2023-11-21T08:59:59;19.50;65.70
35680;DHT22;21803;53.586;10.040;2023-11-21T09:02:27;19.50;65.70
35680;DHT22;21803;53.586;10.040;2023-11-21T09:04:53;19.50;65.70
35680;DHT22;21803;53.586;10.040;2023-11-21T09:07:19;19.50;65.60
35680;DHT22;21803;53.586;10.040;2023-11-21T09:09:49;19.50;65.60
35680;DHT22;21803;53.586;10.040;2023-11-21T09:12:15;19.50;65.50
35680;DHT22;21803;53.586;10.040;2023-11-21T09:14:42;19.50;65.60
35680;DHT22;21803;53.586;10.040;2023-11-21T09:17:09;19.50;65.40
35680;DHT22;21803;53.586;10.040;2023-11-21T09:19:42;19.50;65.30
35680;DHT22;21803;53.586;10.040;2023-11-21T09:22:10;19.50;65.30
35680;DHT22;21803;53.586;10.040;2023-11-21T09:24:36;19.50;65.20
35680;DHT22;21803;53.586;10.040;2023-11-21T09:27:03;19.50;65.20
35680;DHT22;21803;53.586;10.040;2023-11-21T09:29:30;19.50;65.20
35680;DHT22;21803;53.586;10.040;2023-11-21T09:31:56;19.50;65.20
35680;DHT22;21803;53.586;10.040;2023-11-21T09:34:24;19.50;65.30
35680;DHT22;21803;53.586;10.040;2023-11-21T09:36:51;19.50;64.40
35680;DHT22;21803;53.586;10.040;2023-11-21T09:39:17;19.50;64.50
35680;DHT22;21803;53.586;10.040;2023-11-21T09:44:18;19.60;64.50
35680;DHT22;21803;53.586;10.040;2023-11-21T09:46:47;19.60;64.70
35680;DHT22;21803;53.586;10.040;2023-11-21T09:49:15;19.60;64.90
35680;DHT22;21803;53.586;10.040;2023-11-21T09:51:44;19.60;64.80
35680;DHT22;21803;53.586;10.040;2023-11-21T09:54:13;19.60;64.80
35680;DHT22;21803;53.586;10.040;2023-11-21T09:56:41;19.60;64.70
35680;DHT22;21803;53.586;10.040;2023-11-21T09:59:11;19.60;64.80
35680;DHT22;21803;53.586;10.040;2023-11-21T10:01:38;19.60;64.70
35680;DHT22;21803;53.586;10.040;2023-11-21T10:04:06;19.60;64.60
35680;DHT22;21803;53.586;10.040;2023-11-21T10:06:38;19.60;64.50
35680;DHT22;21803;53.586;10.040;2023-11-21T10:09:04;19.60;64.40
35680;DHT22;21803;53.586;10.040;2023-11-21T10:11:41;19.60;64.70
35680;DHT22;21803;53.586;10.040;2023-11-21T10:14:08;19.60;64.40
35680;DHT22;21803;53.586;10.040;2023-11-21T10:16:36;19.60;64.30
35680;DHT22;21803;53.586;10.040;2023-11-21T10:19:04;19.60;64.10
35680;DHT22;21803;53.586;10.040;2023-11-21T10:21:32;19.60;64.10
35680;DHT22;21803;53.586;10.040;2023-11-21T10:23:58;19.60;64.80
35680;DHT22;21803;53.586;10.040;2023-11-21T10:26:25;19.60;63.90
35680;DHT22;21803;53.586;10.040;2023-11-21T10:29:02;19.60;63.80
35680;DHT22;21803;53.586;10.040;2023-11-21T10:31:32;19.60;63.80
35680;DHT22;21803;53.586;10.040;2023-11-21T10:34:15;19.60;63.80
35680;DHT22;21803;53.586;10.040;2023-11-21T10:36:41;19.60;63.80
35680;DHT22;21803;53.586;10.040;2023-11-21T10:39:07;19.60;63.90
35680;DHT22;21803;53.586;10.040;2023-11-21T10:41:33;19.60;63.70
35680;DHT22;21803;53.586;10.040;2023-11-21T10:43:59;19.60;63.70
35680;DHT22;21803;53.586;10.040;2023-11-21T10:46:25;19.60;63.50
35680;DHT22;21803;53.586;10.040;2023-11-21T10:48:54;19.60;63.50
35680;DHT22;21803;53.586;10.040;2023-11-21T10:51:22;19.60;63.40
35680;DHT22;21803;53.586;10.040;2023-11-21T10:53:53;19.60;63.40
35680;DHT22;21803;53.586;10.040;2023-11-21T10:56:23;19.60;63.20
35680;DHT22;21803;53.586;10.040;2023-11-21T10:58:49;19.60;63.20
35680;DHT22;21803;53.586;10.040;2023-11-21T11:01:19;19.60;63.20
35680;DHT22;21803;53.586;10.040;2023-11-21T11:03:47;19.60;63.10
35680;DHT22;21803;53.586;10.040;2023-11-21T11:06:14;19.60;63.00
35680;DHT22;21803;53.586;10.040;2023-11-21T11:08:40;19.60;63.00
35680;DHT22;21803;53.586;10.040;2023-11-21T11:11:06;19.60;62.90
35680;DHT22;21803;53.586;10.040;2023-11-21T11:13:33;19.60;62.70
35680;DHT22;21803;53.586;10.040;2023-11-21T11:16:00;19.00;62.30
35680;DHT22;21803;53.586;10.040;2023-11-21T11:18:30;19.60;62.60
35680;DHT22;21803;53.586;10.040;2023-11-21T11:21:07;19.60;62.60
35680;DHT22;21803;53.586;10.040;2023-11-21T11:24:13;19.60;62.50
35680;DHT22;21803;53.586;10.040;2023-11-21T11:26:51;19.60;62.30
35680;DHT22;21803;53.586;10.040;2023-11-21T11:29:33;19.50;62.20
35680;DHT22;21803;53.586;10.040;2023-11-21T11:32:13;19.60;62.20
35680;DHT22;21803;53.586;10.040;2023-11-21T11:34:46;19.50;62.00
35680;DHT22;21803;53.586;10.040;2023-11-21T11:37:12;19.60;62.00
35680;DHT22;21803;53.586;10.040;2023-11-21T11:39:41;19.60;62.00
35680;DHT22;21803;53.586;10.040;2023-11-21T11:42:08;19.60;61.80
35680;DHT22;21803;53.586;10.040;2023-11-21T11:47:34;19.60;61.60
35680;DHT22;21803;53.586;10.040;2023-11-21T11:50:10;19.60;62.30
35680;DHT22;21803;53.586;10.040;2023-11-21T11:52:47;19.60;61.40
35680;DHT22;21803;53.586;10.040;2023-11-21T11:55:15;19.60;61.40
35680;DHT22;21803;53.586;10.040;2023-11-21T11:57:49;19.60;61.30
35680;DHT22;21803;53.586;10.040;2023-11-21T12:00:42;19.60;61.30
35680;DHT22;21803;53.586;10.040;2023-11-21T12:03:07;19.60;61.30
35680;DHT22;21803;53.586;10.040;2023-11-21T12:05:35;19.60;61.20
35680;DHT22;21803;53.586;10.040;2023-11-21T12:08:04;19.60;61.00
35680;DHT22;21803;53.586;10.040;2023-11-21T12:10:32;19.60;61.00
35680;DHT22;21803;53.586;10.040;2023-11-21T12:13:01;19.60;60.90
35680;DHT22;21803;53.586;10.040;2023-11-21T12:15:27;19.60;60.80
35680;DHT22;21803;53.586;10.040;2023-11-21T12:17:56;19.60;60.80
35680;DHT22;21803;53.586;10.040;2023-11-21T12:20:23;19.60;60.60
35680;DHT22;21803;53.586;10.040;2023-11-21T12:22:54;19.60;60.70
35680;DHT22;21803;53.586;10.040;2023-11-21T12:25:28;19.50;60.50
35680;DHT22;21803;53.586;10.040;2023-11-21T12:27:55;19.60;60.60
35680;DHT22;21803;53.586;10.040;2023-11-21T12:30:22;19.60;60.60
35680;DHT22;21803;53.586;10.040;2023-11-21T12:32:53;19.50;60.40
35680;DHT22;21803;53.586;10.040;2023-11-21T12:35:21;19.60;60.50
35680;DHT22;21803;53.586;10.040;2023-11-21T12:37:47;19.60;60.50
35680;DHT22;21803;53.586;10.040;2023-11-21T12:40:14;19.60;60.70
35680;DHT22;21803;53.586;10.040;2023-11-21T12:42:44;19.60;60.70
35680;DHT22;21803;53.586;10.040;2023-11-21T12:47:44;19.50;60.60
35680;DHT22;21803;53.586;10.040;2023-11-21T12:50:10;19.50;60.60
35680;DHT22;21803;53.586;10.040;2023-11-21T12:52:50;19.60;60.80
35680;DHT22;21803;53.586;10.040;2023-11-21T12:55:17;19.60;60.70
35680;DHT22;21803;53.586;10.040;2023-11-21T12:57:48;19.60;60.80
35680;DHT22;21803;53.586;10.040;2023-11-21T13:00:16;19.60;60.90
35680;DHT22;21803;53.586;10.040;2023-11-21T13:02:51;19.60;60.80
35680;DHT22;21803;53.586;10.040;2023-11-21T13:05:30;19.50;60.80
35680;DHT22;21803;53.586;10.040;2023-11-21T13:07:58;19.50;60.80
35680;DHT22;21803;53.586;10.040;2023-11-21T13:10:25;19.50;60.90
35680;DHT22;21803;53.586;10.040;2023-11-21T13:12:55;19.50;60.90
35680;DHT22;21803;53.586;10.040;2023-11-21T13:15:23;19.50;60.90
35680;DHT22;21803;53.586;10.040;2023-11-21T13:17:50;19.50;60.80
35680;DHT22;21803;53.586;10.040;2023-11-21T13:20:17;19.50;60.80
35680;DHT22;21803;53.586;10.040;2023-11-21T13:22:47;19.50;60.90
35680;DHT22;21803;53.586;10.040;2023-11-21T13:25:17;19.50;60.80
35680;DHT22;21803;53.586;10.040;2023-11-21T13:27:45;19.50;61.00
35680;DHT22;21803;53.586;10.040;2023-11-21T13:30:15;19.50;61.00
35680;DHT22;21803;53.586;10.040;2023-11-21T13:32:43;19.50;60.90
35680;DHT22;21803;53.586;10.040;2023-11-21T13:35:09;19.50;61.60
35680;DHT22;21803;53.586;10.040;2023-11-21T13:37:40;19.60;61.00
35680;DHT22;21803;53.586;10.040;2023-11-21T13:40:07;19.50;60.90
35680;DHT22;21803;53.586;10.040;2023-11-21T13:42:40;19.50;60.80
35680;DHT22;21803;53.586;10.040;2023-11-21T13:45:06;19.50;60.90
35680;DHT22;21803;53.586;10.040;2023-11-21T13:47:32;19.50;60.80
35680;DHT22;21803;53.586;10.040;2023-11-21T13:49:59;19.50;60.70
35680;DHT22;21803;53.586;10.040;2023-11-21T13:52:26;19.50;60.80
35680;DHT22;21803;53.586;10.040;2023-11-21T13:54:53;19.50;60.70
35680;DHT22;21803;53.586;10.040;2023-11-21T13:57:19;19.50;60.80
35680;DHT22;21803;53.586;10.040;2023-11-21T13:59:45;19.50;60.80
35680;DHT22;21803;53.586;10.040;2023-11-21T14:02:11;19.50;60.70
35680;DHT22;21803;53.586;10.040;2023-11-21T14:04:44;19.50;60.70
35680;DHT22;21803;53.586;10.040;2023-11-21T14:07:21;19.50;60.70
35680;DHT22;21803;53.586;10.040;2023-11-21T14:10:02;19.50;60.80
35680;DHT22;21803;53.586;10.040;2023-11-21T14:12:29;19.50;60.70
35680;DHT22;21803;53.586;10.040;2023-11-21T14:14:54;19.50;60.60
35680;DHT22;21803;53.586;10.040;2023-11-21T14:17:20;19.50;60.50
35680;DHT22;21803;53.586;10.040;2023-11-21T14:19:49;19.50;60.50
35680;DHT22;21803;53.586;10.040;2023-11-21T14:22:14;19.50;60.50
35680;DHT22;21803;53.586;10.040;2023-11-21T14:24:40;19.50;60.50
35680;DHT22;21803;53.586;10.040;2023-11-21T14:27:12;19.50;60.40
35680;DHT22;21803;53.586;10.040;2023-11-21T14:29:37;19.50;60.40
35680;DHT22;21803;53.586;10.040;2023-11-21T14:32:04;19.50;60.40
35680;DHT22;21803;53.586;10.040;2023-11-21T14:34:31;19.50;60.50
35680;DHT22;21803;53.586;10.040;2023-11-21T14:36:56;19.40;60.30
35680;DHT22;21803;53.586;10.040;2023-11-21T14:39:22;19.50;60.30
35680;DHT22;21803;53.586;10.040;2023-11-21T14:41:55;19.50;60.20
35680;DHT22;21803;53.586;10.040;2023-11-21T14:44:25;19.50;60.00
35680;DHT22;21803;53.586;10.040;2023-11-21T14:46:52;19.40;60.10
35680;DHT22;21803;53.586;10.040;2023-11-21T14:49:19;19.50;60.10
35680;DHT22;21803;53.586;10.040;2023-11-21T14:51:46;19.40;60.00
35680;DHT22;21803;53.586;10.040;2023-11-21T14:54:31;19.50;60.00
35680;DHT22;21803;53.586;10.040;2023-11-21T14:57:10;19.50;60.00
35680;DHT22;21803;53.586;10.040;2023-11-21T14:59:44;19.50;60.00
35680;DHT22;21803;53.586;10.040;2023-11-21T15:02:16;19.40;60.00
35680;DHT22;21803;53.586;10.040;2023-11-21T15:04:46;19.50;59.90
35680;DHT22;21803;53.586;10.040;2023-11-21T15:07:13;19.50;59.80
35680;DHT22;21803;53.586;10.040;2023-11-21T15:09:39;19.50;59.80
35680;DHT22;21803;53.586;10.040;2023-11-21T15:12:07;19.50;59.80
35680;DHT22;21803;53.586;10.040;2023-11-21T15:14:47;19.50;59.60
35680;DHT22;21803;53.586;10.040;2023-11-21T15:17:15;19.50;59.80
35680;DHT22;21803;53.586;10.040;2023-11-21T15:19:56;19.50;59.70
35680;DHT22;21803;53.586;10.040;2023-11-21T15:22:22;19.40;59.70
35680;DHT22;21803;53.586;10.040;2023-11-21T15:24:48;19.50;59.70